createdAt,value
2017-10-27T00:00:23.586Z,0
2017-10-27T00:01:23.267Z,0
2017-10-27T00:02:23.373Z,0
2017-10-27T00:03:23.556Z,0
2017-10-27T00:04:23.461Z,0
2017-10-27T00:05:31.859Z,0
2017-10-27T00:06:22.659Z,0
2017-10-27T00:07:22.628Z,0
2017-10-27T00:08:22.878Z,0
2017-10-27T00:09:24.050Z,0
2017-10-27T00:10:23.260Z,0
2017-10-27T00:11:23.409Z,0
2017-10-27T00:12:23.147Z,0
2017-10-27T00:13:22.952Z,0
2017-10-27T00:14:22.896Z,0
2017-10-27T00:15:23.629Z,0
2017-10-27T00:16:22.917Z,0
2017-10-27T00:17:23.376Z,0
2017-10-27T00:18:23.618Z,0
2017-10-27T00:19:22.599Z,0
2017-10-27T00:20:24.119Z,0
2017-10-27T00:21:23.141Z,0
2017-10-27T00:22:23.439Z,0
2017-10-27T00:23:23.169Z,0
2017-10-27T00:24:23.242Z,0
2017-10-27T00:25:23.026Z,0
2017-10-27T00:26:23.550Z,0
2017-10-27T00:27:22.921Z,0
2017-10-27T00:28:22.730Z,0
2017-10-27T00:29:22.439Z,0
2017-10-27T00:30:23.189Z,0
2017-10-27T00:31:23.677Z,0
2017-10-27T00:32:22.762Z,0
2017-10-27T00:33:22.790Z,0
2017-10-27T00:34:22.757Z,0
2017-10-27T00:35:23.318Z,0
2017-10-27T00:36:23.799Z,0
2017-10-27T00:37:22.983Z,0
2017-10-27T00:38:22.785Z,0
2017-10-27T00:39:22.645Z,0
2017-10-27T00:40:22.416Z,0
2017-10-27T00:41:23.565Z,0
2017-10-27T00:42:22.469Z,0
2017-10-27T00:43:23.544Z,0
2017-10-27T00:44:23.251Z,0
2017-10-27T00:45:23.409Z,0
2017-10-27T00:46:23.675Z,0
2017-10-27T00:47:22.942Z,0
2017-10-27T00:48:23.088Z,0
2017-10-27T00:49:23.504Z,0
2017-10-27T00:50:23.908Z,0
2017-10-27T00:51:23.132Z,0
2017-10-27T00:52:23.036Z,0
2017-10-27T00:53:23.427Z,0
2017-10-27T00:54:22.443Z,0
2017-10-27T00:55:23.576Z,0
2017-10-27T00:56:22.441Z,0
2017-10-27T00:57:24.387Z,0
2017-10-27T00:58:23.632Z,0
2017-10-27T00:59:23.240Z,0
2017-10-27T01:00:24.108Z,0
2017-10-27T01:01:23.206Z,0
2017-10-27T01:02:23.689Z,0
2017-10-27T01:04:37.851Z,0
2017-10-27T01:05:38.643Z,0
2017-10-27T01:06:39.258Z,0
2017-10-27T01:07:38.216Z,0
2017-10-27T01:08:39.211Z,0
2017-10-27T01:09:39.158Z,0
2017-10-27T01:10:39.079Z,0
2017-10-27T01:11:38.857Z,0
2017-10-27T01:12:39.262Z,0
2017-10-27T01:13:39.084Z,0
2017-10-27T01:14:39.031Z,0
2017-10-27T01:15:38.952Z,0
2017-10-27T01:16:38.670Z,0
2017-10-27T01:17:38.906Z,0
2017-10-27T01:18:38.989Z,0
2017-10-27T01:19:38.560Z,0
2017-10-27T01:20:38.181Z,0
2017-10-27T01:21:37.970Z,0
2017-10-27T01:22:39.260Z,0
2017-10-27T01:23:38.429Z,0
2017-10-27T01:24:38.599Z,0
2017-10-27T01:25:38.559Z,0
2017-10-27T01:26:38.162Z,0
2017-10-27T01:27:39.414Z,0
2017-10-27T01:28:38.663Z,0
2017-10-27T01:29:39.182Z,0
2017-10-27T01:30:38.227Z,0
2017-10-27T01:31:38.803Z,0
2017-10-27T01:32:38.744Z,0
2017-10-27T01:33:38.461Z,0
2017-10-27T01:34:38.176Z,0
2017-10-27T01:35:38.361Z,0
2017-10-27T01:36:38.016Z,0
2017-10-27T01:37:38.802Z,0
2017-10-27T01:38:39.196Z,0
2017-10-27T01:39:38.240Z,0
2017-10-27T01:40:38.878Z,0
2017-10-27T01:41:38.923Z,0
2017-10-27T01:42:38.642Z,0
2017-10-27T01:43:38.978Z,0
2017-10-27T01:44:38.598Z,0
2017-10-27T01:45:38.660Z,0
2017-10-27T01:46:38.645Z,0
2017-10-27T01:47:38.232Z,0
2017-10-27T01:48:38.512Z,0
2017-10-27T01:49:38.269Z,0
2017-10-27T01:50:37.975Z,0
2017-10-27T01:51:39.052Z,0
2017-10-27T01:52:39.112Z,0
2017-10-27T01:53:39.412Z,0
2017-10-27T01:54:38.090Z,0
2017-10-27T01:55:38.229Z,0
2017-10-27T01:56:38.521Z,0
2017-10-27T01:57:38.480Z,0
2017-10-27T01:58:38.171Z,0
2017-10-27T01:59:37.969Z,0
2017-10-27T02:00:38.982Z,0
2017-10-27T02:01:38.250Z,0
2017-10-27T02:02:39.167Z,0
2017-10-27T02:03:38.190Z,0
2017-10-27T02:04:38.780Z,0
2017-10-27T02:05:38.588Z,0
2017-10-27T02:06:38.616Z,0
2017-10-27T02:07:38.635Z,0
2017-10-27T02:08:39.109Z,0
2017-10-27T02:09:37.891Z,0
2017-10-27T02:10:39.052Z,0
2017-10-27T02:11:39.063Z,0
2017-10-27T02:12:38.738Z,0
2017-10-27T02:13:38.524Z,0
2017-10-27T02:14:39.164Z,0
2017-10-27T02:15:38.746Z,0
2017-10-27T02:16:38.392Z,0
2017-10-27T02:17:38.191Z,0
2017-10-27T02:18:38.678Z,0
2017-10-27T02:19:38.781Z,0
2017-10-27T02:20:38.398Z,0
2017-10-27T02:21:38.213Z,0
2017-10-27T02:22:37.964Z,0
2017-10-27T02:23:38.818Z,0
2017-10-27T02:24:38.711Z,0
2017-10-27T02:25:38.892Z,0
2017-10-27T02:26:39.184Z,0
2017-10-27T02:27:38.096Z,0
2017-10-27T02:28:38.992Z,0
2017-10-27T02:29:38.945Z,0
2017-10-27T02:30:39.247Z,0
2017-10-27T02:31:38.314Z,0
2017-10-27T02:32:38.244Z,0
2017-10-27T02:33:38.323Z,0
2017-10-27T02:34:38.632Z,0
2017-10-27T02:35:38.524Z,0
2017-10-27T02:36:38.692Z,0
2017-10-27T02:37:38.254Z,0
2017-10-27T02:38:38.066Z,0
2017-10-27T02:39:37.999Z,0
2017-10-27T02:40:39.412Z,0
2017-10-27T02:41:38.702Z,0
2017-10-27T02:42:39.154Z,0
2017-10-27T02:43:38.928Z,0
2017-10-27T02:44:39.104Z,0
2017-10-27T02:45:39.304Z,0
2017-10-27T02:46:39.112Z,0
2017-10-27T02:47:37.864Z,0
2017-10-27T02:48:38.576Z,0
2017-10-27T02:49:38.669Z,0
2017-10-27T02:50:38.835Z,0
2017-10-27T02:51:39.260Z,0
2017-10-27T02:52:38.031Z,0
2017-10-27T02:53:37.975Z,0
2017-10-27T02:54:38.903Z,0
2017-10-27T02:55:38.581Z,0
2017-10-27T02:56:38.662Z,0
2017-10-27T02:57:38.585Z,0
2017-10-27T02:58:38.244Z,0
2017-10-27T02:59:38.270Z,0
2017-10-27T03:00:38.187Z,0
2017-10-27T03:01:38.352Z,0
2017-10-27T03:02:38.874Z,0
2017-10-27T03:03:38.988Z,0
2017-10-27T03:04:37.871Z,0
2017-10-27T03:05:38.657Z,0
2017-10-27T03:06:38.810Z,0
2017-10-27T03:07:39.297Z,0
2017-10-27T03:08:37.967Z,0
2017-10-27T03:09:37.876Z,0
2017-10-27T03:10:38.618Z,0
2017-10-27T03:11:38.260Z,0
2017-10-27T03:12:38.029Z,0
2017-10-27T03:13:39.218Z,0
2017-10-27T03:14:38.595Z,0
2017-10-27T03:15:38.176Z,0
2017-10-27T03:16:37.975Z,0
2017-10-27T03:17:37.880Z,0
2017-10-27T03:18:39.254Z,0
2017-10-27T03:19:38.387Z,0
2017-10-27T03:20:38.011Z,0
2017-10-27T03:21:39.137Z,0
2017-10-27T03:22:37.727Z,0
2017-10-27T03:23:38.883Z,0
2017-10-27T03:24:38.225Z,0
2017-10-27T03:25:38.395Z,0
2017-10-27T03:26:38.611Z,0
2017-10-27T03:27:38.227Z,0
2017-10-27T03:28:37.991Z,0
2017-10-27T03:29:38.174Z,0
2017-10-27T03:30:38.140Z,0
2017-10-27T03:31:37.711Z,0
2017-10-27T03:32:38.621Z,0
2017-10-27T03:33:38.347Z,0
2017-10-27T03:34:38.693Z,0
2017-10-27T03:35:38.694Z,0
2017-10-27T03:36:38.938Z,0
2017-10-27T03:37:39.098Z,0
2017-10-27T03:38:38.196Z,0
2017-10-27T03:39:38.591Z,0
2017-10-27T03:40:38.605Z,0
2017-10-27T03:41:38.218Z,0
2017-10-27T03:42:37.804Z,0
2017-10-27T03:43:38.985Z,0
2017-10-27T03:44:39.401Z,0
2017-10-27T03:45:38.419Z,0
2017-10-27T03:46:38.430Z,0
2017-10-27T03:47:38.099Z,0
2017-10-27T03:48:38.030Z,0
2017-10-27T03:49:39.031Z,0
2017-10-27T03:50:38.055Z,0
2017-10-27T03:51:38.713Z,0
2017-10-27T03:52:38.847Z,0
2017-10-27T03:53:38.601Z,0
2017-10-27T03:54:38.200Z,0
2017-10-27T03:55:38.705Z,0
2017-10-27T03:56:38.822Z,0
2017-10-27T03:57:38.112Z,0
2017-10-27T03:58:38.513Z,0
2017-10-27T03:59:38.065Z,0
2017-10-27T04:00:38.758Z,0
2017-10-27T04:01:38.585Z,0
2017-10-27T04:02:38.801Z,0
2017-10-27T04:03:38.398Z,0
2017-10-27T04:04:38.550Z,0
2017-10-27T04:05:38.860Z,0
2017-10-27T04:06:38.967Z,0
2017-10-27T04:07:39.089Z,0
2017-10-27T04:08:38.969Z,0
2017-10-27T04:09:38.243Z,0
2017-10-27T04:10:38.692Z,0
2017-10-27T04:11:37.886Z,0
2017-10-27T04:12:39.146Z,0
2017-10-27T04:13:38.210Z,0
2017-10-27T04:14:38.099Z,0
2017-10-27T04:15:38.599Z,0
2017-10-27T04:16:38.456Z,0
2017-10-27T04:17:38.408Z,0
2017-10-27T04:18:37.987Z,0
2017-10-27T04:19:38.659Z,0
2017-10-27T04:20:39.140Z,0
2017-10-27T04:21:37.880Z,0
2017-10-27T04:22:39.035Z,0
2017-10-27T04:23:37.786Z,0
2017-10-27T04:24:38.830Z,0
2017-10-27T04:25:39.545Z,0
2017-10-27T04:26:38.658Z,0
2017-10-27T04:27:38.717Z,0
2017-10-27T04:28:38.636Z,0
2017-10-27T04:29:38.667Z,0
2017-10-27T04:30:38.140Z,0
2017-10-27T04:31:38.809Z,0
2017-10-27T04:32:38.075Z,0
2017-10-27T04:33:38.264Z,0
2017-10-27T04:34:38.342Z,0
2017-10-27T04:35:38.169Z,0
2017-10-27T04:36:38.487Z,0
2017-10-27T04:37:39.480Z,0
2017-10-27T04:38:38.223Z,0
2017-10-27T04:39:38.080Z,0
2017-10-27T04:40:37.754Z,0
2017-10-27T04:41:38.485Z,0
2017-10-27T04:42:38.504Z,0
2017-10-27T04:43:38.507Z,0
2017-10-27T04:44:38.393Z,0
2017-10-27T04:45:38.324Z,0
2017-10-27T04:46:38.385Z,0
2017-10-27T04:47:38.487Z,0
2017-10-27T04:48:38.839Z,0
2017-10-27T04:49:39.134Z,0
2017-10-27T04:50:38.011Z,0
2017-10-27T04:51:37.652Z,0
2017-10-27T04:52:43.047Z,0
2017-10-27T04:53:38.785Z,0
2017-10-27T04:54:39.969Z,0
2017-10-27T04:55:38.076Z,0
2017-10-27T04:56:38.108Z,0
2017-10-27T04:57:38.217Z,0
2017-10-27T04:58:39.198Z,0
2017-10-27T04:59:38.331Z,0
2017-10-27T05:00:38.386Z,0
2017-10-27T05:01:38.444Z,0
2017-10-27T05:02:38.055Z,0
2017-10-27T05:03:38.126Z,0
2017-10-27T05:04:37.973Z,0
2017-10-27T05:05:38.663Z,0
2017-10-27T05:06:38.768Z,0
2017-10-27T05:07:38.651Z,0
2017-10-27T05:08:39.362Z,0
2017-10-27T05:09:38.339Z,0
2017-10-27T05:10:38.567Z,0
2017-10-27T05:11:38.005Z,0
2017-10-27T05:12:38.066Z,0
2017-10-27T05:13:38.704Z,0
2017-10-27T05:14:39.197Z,0
2017-10-27T05:15:37.882Z,0
2017-10-27T05:16:38.978Z,0
2017-10-27T05:17:37.906Z,0
2017-10-27T05:18:38.897Z,0
2017-10-27T05:19:38.420Z,0
2017-10-27T05:20:38.431Z,0
2017-10-27T05:21:38.034Z,0
2017-10-27T05:22:37.714Z,0
2017-10-27T05:23:38.321Z,0
2017-10-27T05:24:38.187Z,0
2017-10-27T05:25:38.639Z,0
2017-10-27T05:26:38.584Z,0
2017-10-27T05:27:38.684Z,0
2017-10-27T05:28:38.043Z,0
2017-10-27T05:29:37.937Z,0
2017-10-27T05:30:39.314Z,0
2017-10-27T05:31:38.320Z,0
2017-10-27T05:32:38.064Z,0
2017-10-27T05:33:38.015Z,0
2017-10-27T05:34:37.881Z,0
2017-10-27T05:35:39.510Z,0
2017-10-27T05:36:37.863Z,0
2017-10-27T05:37:38.469Z,0
2017-10-27T05:38:38.393Z,0
2017-10-27T05:39:38.211Z,0
2017-10-27T05:40:38.104Z,0
2017-10-27T05:41:38.305Z,0
2017-10-27T05:42:38.344Z,0
2017-10-27T05:43:38.432Z,0
2017-10-27T05:44:38.066Z,0
2017-10-27T05:45:38.241Z,0
2017-10-27T05:46:38.770Z,0
2017-10-27T05:47:39.062Z,0
2017-10-27T05:48:38.068Z,0
2017-10-27T05:49:38.229Z,0
2017-10-27T05:50:37.604Z,0
2017-10-27T05:51:39.266Z,0
2017-10-27T05:52:38.477Z,0
2017-10-27T05:53:38.003Z,0
2017-10-27T05:54:38.056Z,0
2017-10-27T05:55:38.635Z,0
2017-10-27T05:56:39.207Z,0
2017-10-27T05:57:38.692Z,0
2017-10-27T05:58:38.399Z,0
2017-10-27T05:59:38.473Z,0
2017-10-27T06:00:38.521Z,0
2017-10-27T06:01:38.295Z,0
2017-10-27T06:02:38.382Z,0
2017-10-27T06:03:39.094Z,1
2017-10-27T06:04:38.195Z,1
2017-10-27T06:05:38.205Z,1
2017-10-27T06:06:38.084Z,1
2017-10-27T06:07:38.337Z,1
2017-10-27T06:08:38.674Z,1
2017-10-27T06:09:38.582Z,1
2017-10-27T06:10:38.218Z,1
2017-10-27T06:11:38.558Z,2
2017-10-27T06:12:38.370Z,2
2017-10-27T06:13:38.611Z,2
2017-10-27T06:14:39.043Z,3
2017-10-27T06:15:37.842Z,3
2017-10-27T06:16:38.936Z,3
2017-10-27T06:17:37.712Z,3
2017-10-27T06:18:39.226Z,3
2017-10-27T06:19:38.100Z,4
2017-10-27T06:20:38.057Z,4
2017-10-27T06:21:38.390Z,4
2017-10-27T06:22:38.166Z,4
2017-10-27T06:23:38.433Z,4
2017-10-27T06:24:38.556Z,5
2017-10-27T06:25:37.750Z,5
2017-10-27T06:26:38.377Z,6
2017-10-27T06:27:38.174Z,5
2017-10-27T06:28:38.055Z,4
2017-10-27T06:29:38.582Z,4
2017-10-27T06:30:38.285Z,4
2017-10-27T06:31:38.407Z,5
2017-10-27T06:32:38.251Z,4
2017-10-27T06:33:38.306Z,6
2017-10-27T06:34:38.268Z,6
2017-10-27T06:35:38.589Z,5
2017-10-27T06:36:39.073Z,5
2017-10-27T06:37:37.756Z,6
2017-10-27T06:38:38.530Z,8
2017-10-27T06:39:39.153Z,8
2017-10-27T06:40:38.256Z,9
2017-10-27T06:41:38.012Z,10
2017-10-27T06:42:37.840Z,10
2017-10-27T06:43:38.093Z,12
2017-10-27T06:44:37.946Z,13
2017-10-27T06:45:38.197Z,13
2017-10-27T06:46:38.258Z,14
2017-10-27T06:47:38.125Z,14
2017-10-27T06:48:38.535Z,14
2017-10-27T06:49:38.737Z,14
2017-10-27T06:50:38.936Z,15
2017-10-27T06:51:38.479Z,16
2017-10-27T06:52:38.284Z,18
2017-10-27T06:53:38.056Z,19
2017-10-27T06:54:38.443Z,21
2017-10-27T06:55:39.435Z,23
2017-10-27T06:56:38.489Z,24
2017-10-27T06:57:38.468Z,25
2017-10-27T06:58:38.536Z,26
2017-10-27T06:59:38.330Z,28
2017-10-27T07:00:38.617Z,32
2017-10-27T07:01:39.399Z,31
2017-10-27T07:02:38.171Z,31
2017-10-27T07:03:38.041Z,31
2017-10-27T07:04:38.342Z,32
2017-10-27T07:05:38.704Z,33
2017-10-27T07:06:38.593Z,34
2017-10-27T07:07:38.815Z,31
2017-10-27T07:08:40.057Z,32
2017-10-27T07:09:38.196Z,32
2017-10-27T07:10:38.452Z,31
2017-10-27T07:11:38.298Z,31
2017-10-27T07:12:38.172Z,31
2017-10-27T07:13:38.349Z,31
2017-10-27T07:14:38.478Z,31
2017-10-27T07:15:38.040Z,31
2017-10-27T07:16:38.220Z,31
2017-10-27T07:17:37.720Z,31
2017-10-27T07:18:39.360Z,31
2017-10-27T07:19:38.689Z,31
2017-10-27T07:20:38.030Z,32
2017-10-27T07:21:37.830Z,32
2017-10-27T07:22:38.135Z,32
2017-10-27T07:23:38.407Z,32
2017-10-27T07:24:39.013Z,33
2017-10-27T07:25:37.767Z,33
2017-10-27T07:26:38.560Z,33
2017-10-27T07:27:38.672Z,34
2017-10-27T07:28:38.577Z,34
2017-10-27T07:29:39.283Z,35
2017-10-27T07:30:38.361Z,36
2017-10-27T07:31:38.521Z,36
2017-10-27T07:32:39.009Z,36
2017-10-27T07:33:38.933Z,37
2017-10-27T07:34:37.766Z,37
2017-10-27T07:35:39.223Z,37
2017-10-27T07:36:38.103Z,38
2017-10-27T07:37:38.043Z,38
2017-10-27T07:38:37.727Z,39
2017-10-27T07:39:38.567Z,41
2017-10-27T07:40:38.558Z,53
2017-10-27T07:41:39.186Z,67
2017-10-27T07:42:38.456Z,62
2017-10-27T07:43:38.532Z,63
2017-10-27T07:44:38.583Z,58
2017-10-27T07:45:38.513Z,52
2017-10-27T07:46:38.710Z,52
2017-10-27T07:47:39.020Z,61
2017-10-27T07:48:38.003Z,68
2017-10-27T07:49:38.581Z,62
2017-10-27T07:50:38.437Z,49
2017-10-27T07:51:38.668Z,46
2017-10-27T07:52:38.589Z,48
2017-10-27T07:53:38.834Z,42
2017-10-27T07:54:38.037Z,39
2017-10-27T07:55:38.130Z,39
2017-10-27T07:56:37.807Z,41
2017-10-27T07:57:39.259Z,43
2017-10-27T07:58:39.131Z,42
2017-10-27T07:59:38.801Z,43
2017-10-27T08:00:38.829Z,43
2017-10-27T08:01:38.273Z,44
2017-10-27T08:02:38.235Z,44
2017-10-27T08:03:38.231Z,45
2017-10-27T08:04:39.231Z,46
2017-10-27T08:05:38.758Z,47
2017-10-27T08:06:37.950Z,52
2017-10-27T08:07:37.944Z,67
2017-10-27T08:08:38.342Z,76
2017-10-27T08:09:38.660Z,78
2017-10-27T08:10:37.757Z,77
2017-10-27T08:11:39.755Z,92
2017-10-27T08:12:38.607Z,97
2017-10-27T08:13:37.991Z,102
2017-10-27T08:14:38.487Z,127
2017-10-27T08:15:38.654Z,117
2017-10-27T08:16:38.258Z,90
2017-10-27T08:17:38.195Z,77
2017-10-27T08:18:38.567Z,65
2017-10-27T08:19:39.423Z,71
2017-10-27T08:20:38.357Z,78
2017-10-27T08:21:38.308Z,86
2017-10-27T08:22:38.493Z,94
2017-10-27T08:23:39.117Z,97
2017-10-27T08:24:38.059Z,92
2017-10-27T08:25:38.627Z,83
2017-10-27T08:26:37.674Z,79
2017-10-27T08:27:38.660Z,97
2017-10-27T08:28:38.952Z,103
2017-10-27T08:29:37.794Z,91
2017-10-27T08:30:39.187Z,85
2017-10-27T08:31:38.510Z,73
2017-10-27T08:32:38.183Z,69
2017-10-27T08:33:38.325Z,76
2017-10-27T08:34:38.259Z,78
2017-10-27T08:35:38.640Z,89
2017-10-27T08:36:38.922Z,121
2017-10-27T08:37:39.444Z,138
2017-10-27T08:38:38.969Z,145
2017-10-27T08:39:38.201Z,151
2017-10-27T08:40:38.606Z,105
2017-10-27T08:41:38.456Z,75
2017-10-27T08:42:38.773Z,69
2017-10-27T08:43:37.702Z,92
2017-10-27T08:44:38.759Z,119
2017-10-27T08:45:38.697Z,120
2017-10-27T08:46:37.755Z,133
2017-10-27T08:47:37.804Z,291
2017-10-27T08:48:38.643Z,213
2017-10-27T08:49:38.757Z,159
2017-10-27T08:50:38.758Z,113
2017-10-27T08:51:38.457Z,115
2017-10-27T08:52:38.746Z,113
2017-10-27T08:53:38.138Z,148
2017-10-27T08:54:38.933Z,139
2017-10-27T08:55:37.906Z,141
2017-10-27T08:56:37.740Z,100
2017-10-27T08:57:39.163Z,117
2017-10-27T08:58:38.402Z,83
2017-10-27T08:59:39.218Z,77
2017-10-27T09:00:38.464Z,88
2017-10-27T09:01:37.926Z,87
2017-10-27T09:02:38.043Z,105
2017-10-27T09:03:38.098Z,156
2017-10-27T09:04:38.464Z,208
2017-10-27T09:05:38.349Z,194
2017-10-27T09:06:38.442Z,223
2017-10-27T09:07:39.003Z,255
2017-10-27T09:08:37.913Z,264
2017-10-27T09:09:39.508Z,301
2017-10-27T09:10:38.846Z,289
2017-10-27T09:11:38.116Z,167
2017-10-27T09:12:38.124Z,181
2017-10-27T09:13:38.867Z,103
2017-10-27T09:14:41.358Z,124
2017-10-27T09:15:37.746Z,173
2017-10-27T09:16:38.527Z,228
2017-10-27T09:17:39.049Z,117
2017-10-27T09:18:38.973Z,96
2017-10-27T09:19:38.699Z,79
2017-10-27T09:20:38.047Z,89
2017-10-27T09:21:38.895Z,288
2017-10-27T09:22:39.306Z,91
2017-10-27T09:23:40.647Z,170
2017-10-27T09:24:38.974Z,330
2017-10-27T09:25:38.367Z,332
2017-10-27T09:26:38.755Z,160
2017-10-27T09:27:37.674Z,127
2017-10-27T09:28:38.551Z,80
2017-10-27T09:29:39.883Z,126
2017-10-27T09:30:39.008Z,156
2017-10-27T09:31:37.901Z,167
2017-10-27T09:32:37.726Z,263
2017-10-27T09:33:38.703Z,275
2017-10-27T09:34:38.118Z,244
2017-10-27T09:35:38.595Z,263
2017-10-27T09:36:39.256Z,255
2017-10-27T09:37:38.878Z,263
2017-10-27T09:38:38.974Z,310
2017-10-27T09:39:38.462Z,200
2017-10-27T09:40:38.403Z,174
2017-10-27T09:41:38.672Z,240
2017-10-27T09:42:39.465Z,145
2017-10-27T09:43:38.710Z,141
2017-10-27T09:44:37.630Z,157
2017-10-27T09:45:39.060Z,152
2017-10-27T09:46:38.289Z,135
2017-10-27T09:47:38.736Z,127
2017-10-27T09:48:38.013Z,106
2017-10-27T09:49:38.193Z,123
2017-10-27T09:50:38.372Z,231
2017-10-27T09:51:38.306Z,262
2017-10-27T09:52:38.474Z,171
2017-10-27T09:53:39.214Z,272
2017-10-27T09:54:38.101Z,163
2017-10-27T09:55:38.197Z,161
2017-10-27T09:56:37.692Z,278
2017-10-27T09:57:38.976Z,137
2017-10-27T09:58:38.680Z,222
2017-10-27T09:59:38.123Z,107
2017-10-27T10:00:38.230Z,115
2017-10-27T10:01:38.054Z,138
2017-10-27T10:02:38.158Z,115
2017-10-27T10:03:38.722Z,127
2017-10-27T10:04:38.230Z,130
2017-10-27T10:05:38.429Z,132
2017-10-27T10:06:38.407Z,118
2017-10-27T10:07:38.671Z,141
2017-10-27T10:08:39.369Z,150
2017-10-27T10:09:38.307Z,119
2017-10-27T10:10:38.434Z,187
2017-10-27T10:11:39.640Z,209
2017-10-27T10:12:38.155Z,138
2017-10-27T10:13:38.122Z,140
2017-10-27T10:14:40.206Z,109
2017-10-27T10:15:38.611Z,89
2017-10-27T10:16:38.761Z,101
2017-10-27T10:17:37.795Z,208
2017-10-27T10:18:37.982Z,167
2017-10-27T10:19:38.760Z,98
2017-10-27T10:20:38.014Z,233
2017-10-27T10:21:37.858Z,214
2017-10-27T10:22:38.064Z,89
2017-10-27T10:23:38.001Z,87
2017-10-27T10:24:38.782Z,196
2017-10-27T10:25:38.079Z,101
2017-10-27T10:26:38.551Z,210
2017-10-27T10:27:38.950Z,198
2017-10-27T10:28:38.075Z,201
2017-10-27T10:29:38.723Z,201
2017-10-27T10:30:37.689Z,239
2017-10-27T10:31:39.156Z,267
2017-10-27T10:32:38.871Z,237
2017-10-27T10:33:38.434Z,221
2017-10-27T10:34:38.707Z,163
2017-10-27T10:35:38.205Z,241
2017-10-27T10:36:38.235Z,96
2017-10-27T10:37:38.130Z,83
2017-10-27T10:38:38.259Z,207
2017-10-27T10:39:39.140Z,147
2017-10-27T10:40:37.915Z,219
2017-10-27T10:41:39.199Z,235
2017-10-27T10:42:38.483Z,222
2017-10-27T10:43:38.547Z,113
2017-10-27T10:44:39.368Z,269
2017-10-27T10:45:38.306Z,262
2017-10-27T10:46:39.077Z,171
2017-10-27T10:47:38.640Z,243
2017-10-27T10:48:39.204Z,228
2017-10-27T10:49:38.615Z,254
2017-10-27T10:50:38.748Z,260
2017-10-27T10:51:37.755Z,262
2017-10-27T10:52:37.985Z,261
2017-10-27T10:53:38.261Z,200
2017-10-27T10:54:38.438Z,147
2017-10-27T10:55:38.121Z,228
2017-10-27T10:56:39.069Z,274
2017-10-27T10:57:37.940Z,246
2017-10-27T10:58:37.886Z,94
2017-10-27T10:59:38.327Z,99
2017-10-27T11:00:38.217Z,129
2017-10-27T11:01:38.663Z,128
2017-10-27T11:02:38.302Z,253
2017-10-27T11:03:38.256Z,248
2017-10-27T11:04:38.227Z,260
2017-10-27T11:05:39.182Z,289
2017-10-27T11:06:38.757Z,307
2017-10-27T11:07:38.713Z,331
2017-10-27T11:08:38.163Z,323
2017-10-27T11:09:38.465Z,287
2017-10-27T11:10:38.587Z,126
2017-10-27T11:11:37.990Z,126
2017-10-27T11:12:38.633Z,128
2017-10-27T11:13:38.638Z,100
2017-10-27T11:14:37.883Z,96
2017-10-27T11:15:38.005Z,108
2017-10-27T11:16:38.086Z,322
2017-10-27T11:17:39.002Z,342
2017-10-27T11:18:38.031Z,360
2017-10-27T11:19:38.765Z,376
2017-10-27T11:20:37.868Z,182
2017-10-27T11:21:38.589Z,139
2017-10-27T11:22:41.575Z,176
2017-10-27T11:23:38.517Z,466
2017-10-27T11:24:38.477Z,477
2017-10-27T11:25:37.548Z,218
2017-10-27T11:26:38.920Z,287
2017-10-27T11:27:38.622Z,319
2017-10-27T11:28:38.610Z,498
2017-10-27T11:29:39.539Z,437
2017-10-27T11:30:38.592Z,176
2017-10-27T11:31:38.359Z,138
2017-10-27T11:32:38.878Z,143
2017-10-27T11:33:37.740Z,160
2017-10-27T11:34:37.828Z,167
2017-10-27T11:35:38.138Z,161
2017-10-27T11:36:38.594Z,130
2017-10-27T11:37:38.775Z,132
2017-10-27T11:38:38.160Z,136
2017-10-27T11:39:38.353Z,126
2017-10-27T11:40:38.347Z,115
2017-10-27T11:41:37.986Z,119
2017-10-27T11:42:38.711Z,117
2017-10-27T11:43:37.694Z,122
2017-10-27T11:44:37.587Z,125
2017-10-27T11:45:38.521Z,130
2017-10-27T11:46:38.095Z,148
2017-10-27T11:47:39.489Z,194
2017-10-27T11:48:38.932Z,178
2017-10-27T11:49:38.955Z,121
2017-10-27T11:50:38.919Z,85
2017-10-27T11:51:38.573Z,74
2017-10-27T11:52:39.699Z,68
2017-10-27T11:53:38.456Z,55
2017-10-27T11:54:38.908Z,53
2017-10-27T11:55:38.137Z,38
2017-10-27T11:56:39.335Z,29
2017-10-27T11:57:37.926Z,32
2017-10-27T11:58:38.965Z,36
2017-10-27T11:59:38.384Z,36
2017-10-27T12:00:38.955Z,47
2017-10-27T12:01:38.680Z,65
2017-10-27T12:02:38.572Z,79
2017-10-27T12:03:39.766Z,95
2017-10-27T12:04:39.189Z,102
2017-10-27T12:05:38.389Z,83
2017-10-27T12:06:38.312Z,64
2017-10-27T12:07:38.138Z,58
2017-10-27T12:08:38.632Z,63
2017-10-27T12:09:37.940Z,69
2017-10-27T12:10:38.270Z,77
2017-10-27T12:11:39.606Z,158
2017-10-27T12:12:38.205Z,329
2017-10-27T12:13:40.113Z,333
2017-10-27T12:14:40.412Z,345
2017-10-27T12:15:38.213Z,335
2017-10-27T12:16:39.286Z,270
2017-10-27T12:17:37.866Z,178
2017-10-27T12:18:38.200Z,174
2017-10-27T12:19:38.636Z,175
2017-10-27T12:20:38.864Z,246
2017-10-27T12:21:37.904Z,215
2017-10-27T12:22:38.684Z,233
2017-10-27T12:23:38.754Z,260
2017-10-27T12:24:37.709Z,213
2017-10-27T12:25:38.132Z,199
2017-10-27T12:26:40.154Z,170
2017-10-27T12:27:38.185Z,156
2017-10-27T12:28:38.774Z,151
2017-10-27T12:29:37.677Z,139
2017-10-27T12:30:38.833Z,139
2017-10-27T12:31:37.723Z,132
2017-10-27T12:32:38.467Z,125
2017-10-27T12:33:39.017Z,109
2017-10-27T12:34:38.045Z,97
2017-10-27T12:35:38.703Z,106
2017-10-27T12:36:39.858Z,127
2017-10-27T12:37:38.449Z,190
2017-10-27T12:38:38.119Z,172
2017-10-27T12:39:38.951Z,177
2017-10-27T12:40:38.025Z,321
2017-10-27T12:41:38.333Z,323
2017-10-27T12:42:40.011Z,318
2017-10-27T12:43:38.113Z,312
2017-10-27T12:44:38.762Z,308
2017-10-27T12:45:37.704Z,304
2017-10-27T12:46:37.776Z,321
2017-10-27T12:47:37.991Z,328
2017-10-27T12:48:38.645Z,88
2017-10-27T12:49:37.742Z,319
2017-10-27T12:50:38.989Z,317
2017-10-27T12:51:37.972Z,310
2017-10-27T12:52:38.658Z,309
2017-10-27T12:53:38.502Z,216
2017-10-27T12:54:38.508Z,312
2017-10-27T12:55:37.732Z,318
2017-10-27T12:56:38.548Z,315
2017-10-27T12:57:38.015Z,321
2017-10-27T12:58:39.427Z,297
2017-10-27T12:59:38.749Z,314
2017-10-27T13:00:39.333Z,294
2017-10-27T13:01:39.368Z,349
2017-10-27T13:02:38.530Z,381
2017-10-27T13:03:40.228Z,411
2017-10-27T13:04:38.827Z,425
2017-10-27T13:05:38.587Z,380
2017-10-27T13:06:39.109Z,222
2017-10-27T13:07:39.468Z,194
2017-10-27T13:08:38.826Z,228
2017-10-27T13:09:38.315Z,200
2017-10-27T13:10:38.610Z,263
2017-10-27T13:11:39.407Z,270
2017-10-27T13:12:39.386Z,163
2017-10-27T13:13:37.579Z,271
2017-10-27T13:14:38.676Z,210
2017-10-27T13:15:37.974Z,331
2017-10-27T13:16:38.086Z,350
2017-10-27T13:17:38.917Z,347
2017-10-27T13:18:37.985Z,316
2017-10-27T13:19:38.579Z,290
2017-10-27T13:20:37.747Z,262
2017-10-27T13:21:37.835Z,162
2017-10-27T13:22:38.758Z,261
2017-10-27T13:23:38.277Z,264
2017-10-27T13:24:38.676Z,232
2017-10-27T13:25:37.908Z,185
2017-10-27T13:26:38.261Z,166
2017-10-27T13:27:38.850Z,180
2017-10-27T13:28:38.982Z,155
2017-10-27T13:29:38.788Z,264
2017-10-27T13:30:38.526Z,111
2017-10-27T13:31:38.216Z,113
2017-10-27T13:32:40.095Z,119
2017-10-27T13:33:38.248Z,164
2017-10-27T13:34:38.951Z,121
2017-10-27T13:35:38.238Z,120
2017-10-27T13:36:38.355Z,116
2017-10-27T13:37:39.940Z,111
2017-10-27T13:38:39.453Z,118
2017-10-27T13:39:39.164Z,128
2017-10-27T13:40:38.527Z,130
2017-10-27T13:41:38.458Z,126
2017-10-27T13:42:40.011Z,125
2017-10-27T13:43:39.329Z,130
2017-10-27T13:44:37.669Z,127
2017-10-27T13:45:38.152Z,123
2017-10-27T13:46:38.464Z,121
2017-10-27T13:47:39.361Z,121
2017-10-27T13:48:39.073Z,119
2017-10-27T13:49:38.679Z,119
2017-10-27T13:50:37.929Z,122
2017-10-27T13:51:38.257Z,126
2017-10-27T13:52:38.924Z,129
2017-10-27T13:53:38.623Z,134
2017-10-27T13:54:38.198Z,141
2017-10-27T13:55:38.680Z,144
2017-10-27T13:56:38.264Z,139
2017-10-27T13:57:38.604Z,133
2017-10-27T13:58:37.681Z,130
2017-10-27T13:59:38.881Z,130
2017-10-27T14:00:37.860Z,132
2017-10-27T14:01:38.176Z,141
2017-10-27T14:02:38.527Z,119
2017-10-27T14:03:37.652Z,95
2017-10-27T14:04:37.738Z,83
2017-10-27T14:05:37.784Z,76
2017-10-27T14:06:38.793Z,69
2017-10-27T14:07:40.013Z,64
2017-10-27T14:08:38.522Z,62
2017-10-27T14:09:38.959Z,62
2017-10-27T14:10:38.523Z,62
2017-10-27T14:11:38.527Z,59
2017-10-27T14:12:37.441Z,57
2017-10-27T14:13:38.526Z,54
2017-10-27T14:14:37.566Z,52
2017-10-27T14:15:38.205Z,48
2017-10-27T14:16:37.504Z,44
2017-10-27T14:17:37.992Z,41
2017-10-27T14:18:38.454Z,38
2017-10-27T14:19:37.791Z,39
2017-10-27T14:20:38.249Z,42